sensor_id;sensor_type;location;lat;lon;timestamp;P1;durP1;ratioP1;P2;durP2;ratioP2
28844;SDS011;15976;47.938;7.758;2023-03-03T00:01:32;60.53;;;25.83;;
28844;SDS011;15976;47.938;7.758;2023-03-03T00:03:59;59.45;;;25.92;;
28844;SDS011;15976;47.938;7.758;2023-03-03T00:06:26;60.17;;;26.63;;
28844;SDS011;15976;47.938;7.758;2023-03-03T00:08:55;68.53;;;26.80;;
28844;SDS011;15976;47.938;7.758;2023-03-03T00:11:23;67.60;;;27.08;;
28844;SDS011;15976;47.938;7.758;2023-03-03T00:13:51;63.88;;;27.17;;
28844;SDS011;15976;47.938;7.758;2023-03-03T00:18:56;62.83;;;25.50;;
28844;SDS011;15976;47.938;7.758;2023-03-03T00:21:34;66.55;;;27.73;;
28844;SDS011;15976;47.938;7.758;2023-03-03T00:26:54;61.45;;;25.75;;
28844;SDS011;15976;47.938;7.758;2023-03-03T00:35:01;63.75;;;26.70;;
28844;SDS011;15976;47.938;7.758;2023-03-03T00:37:45;61.00;;;25.92;;
28844;SDS011;15976;47.938;7.758;2023-03-03T00:42:54;62.65;;;26.08;;
28844;SDS011;15976;47.938;7.758;2023-03-03T00:45:27;66.82;;;27.15;;
28844;SDS011;15976;47.938;7.758;2023-03-03T00:47:56;55.17;;;24.15;;
28844;SDS011;15976;47.938;7.758;2023-03-03T00:50:31;61.65;;;25.85;;
28844;SDS011;15976;47.938;7.758;2023-03-03T00:53:09;65.57;;;26.65;;
28844;SDS011;15976;47.938;7.758;2023-03-03T00:55:47;71.43;;;28.08;;
28844;SDS011;15976;47.938;7.758;2023-03-03T00:58:16;64.65;;;27.73;;
28844;SDS011;15976;47.938;7.758;2023-03-03T01:00:46;62.90;;;26.67;;
28844;SDS011;15976;47.938;7.758;2023-03-03T01:03:18;64.60;;;27.90;;
28844;SDS011;15976;47.938;7.758;2023-03-03T01:05:47;66.30;;;28.60;;
28844;SDS011;15976;47.938;7.758;2023-03-03T01:08:15;64.53;;;27.02;;
28844;SDS011;15976;47.938;7.758;2023-03-03T01:10:50;64.28;;;27.20;;
28844;SDS011;15976;47.938;7.758;2023-03-03T01:13:20;62.17;;;27.85;;
28844;SDS011;15976;47.938;7.758;2023-03-03T01:15:49;64.53;;;28.05;;
28844;SDS011;15976;47.938;7.758;2023-03-03T01:18:17;65.75;;;28.50;;
28844;SDS011;15976;47.938;7.758;2023-03-03T01:20:44;63.65;;;28.08;;
28844;SDS011;15976;47.938;7.758;2023-03-03T01:23:11;65.15;;;26.70;;
28844;SDS011;15976;47.938;7.758;2023-03-03T01:25:38;60.20;;;26.45;;
28844;SDS011;15976;47.938;7.758;2023-03-03T01:28:06;60.55;;;26.35;;
28844;SDS011;15976;47.938;7.758;2023-03-03T01:30:32;61.13;;;26.40;;
28844;SDS011;15976;47.938;7.758;2023-03-03T01:32:59;66.63;;;26.55;;
28844;SDS011;15976;47.938;7.758;2023-03-03T01:35:27;63.58;;;25.88;;
28844;SDS011;15976;47.938;7.758;2023-03-03T01:37:55;64.13;;;26.80;;
28844;SDS011;15976;47.938;7.758;2023-03-03T01:40:25;64.50;;;25.48;;
28844;SDS011;15976;47.938;7.758;2023-03-03T01:42:55;64.65;;;27.02;;
28844;SDS011;15976;47.938;7.758;2023-03-03T01:45:25;68.85;;;28.13;;
28844;SDS011;15976;47.938;7.758;2023-03-03T01:50:41;63.92;;;27.52;;
28844;SDS011;15976;47.938;7.758;2023-03-03T01:53:18;62.85;;;25.02;;
28844;SDS011;15976;47.938;7.758;2023-03-03T01:56:02;64.68;;;25.80;;
28844;SDS011;15976;47.938;7.758;2023-03-03T01:58:32;60.45;;;25.98;;
28844;SDS011;15976;47.938;7.758;2023-03-03T02:01:03;59.42;;;25.60;;
28844;SDS011;15976;47.938;7.758;2023-03-03T02:03:34;64.27;;;27.27;;
28844;SDS011;15976;47.938;7.758;2023-03-03T02:06:02;64.60;;;27.73;;
28844;SDS011;15976;47.938;7.758;2023-03-03T02:08:38;59.72;;;25.52;;
28844;SDS011;15976;47.938;7.758;2023-03-03T02:11:21;60.45;;;25.05;;
28844;SDS011;15976;47.938;7.758;2023-03-03T02:13:49;62.08;;;25.67;;
28844;SDS011;15976;47.938;7.758;2023-03-03T02:16:16;61.40;;;26.13;;
28844;SDS011;15976;47.938;7.758;2023-03-03T02:18:43;63.15;;;28.10;;
28844;SDS011;15976;47.938;7.758;2023-03-03T02:21:14;68.68;;;27.60;;
28844;SDS011;15976;47.938;7.758;2023-03-03T02:26:40;66.93;;;27.75;;
28844;SDS011;15976;47.938;7.758;2023-03-03T02:29:09;68.82;;;25.88;;
28844;SDS011;15976;47.938;7.758;2023-03-03T02:31:39;64.60;;;26.35;;
28844;SDS011;15976;47.938;7.758;2023-03-03T02:34:06;61.50;;;25.88;;
28844;SDS011;15976;47.938;7.758;2023-03-03T02:36:34;65.55;;;27.40;;
28844;SDS011;15976;47.938;7.758;2023-03-03T02:39:17;67.72;;;28.58;;
28844;SDS011;15976;47.938;7.758;2023-03-03T02:44:42;62.13;;;25.52;;
28844;SDS011;15976;47.938;7.758;2023-03-03T02:47:09;68.35;;;28.30;;
28844;SDS011;15976;47.938;7.758;2023-03-03T02:49:37;63.13;;;26.85;;
28844;SDS011;15976;47.938;7.758;2023-03-03T02:52:06;61.42;;;25.85;;
28844;SDS011;15976;47.938;7.758;2023-03-03T02:54:40;64.85;;;26.20;;
28844;SDS011;15976;47.938;7.758;2023-03-03T02:57:10;65.00;;;25.30;;
28844;SDS011;15976;47.938;7.758;2023-03-03T02:59:37;58.30;;;25.13;;
28844;SDS011;15976;47.938;7.758;2023-03-03T03:02:09;64.82;;;25.45;;
28844;SDS011;15976;47.938;7.758;2023-03-03T03:04:36;66.68;;;26.08;;
28844;SDS011;15976;47.938;7.758;2023-03-03T03:07:03;60.95;;;25.52;;
28844;SDS011;15976;47.938;7.758;2023-03-03T03:09:33;61.33;;;26.67;;
28844;SDS011;15976;47.938;7.758;2023-03-03T03:12:00;59.50;;;26.20;;
28844;SDS011;15976;47.938;7.758;2023-03-03T03:14:30;63.45;;;25.10;;
28844;SDS011;15976;47.938;7.758;2023-03-03T03:16:57;62.85;;;26.70;;
28844;SDS011;15976;47.938;7.758;2023-03-03T03:19:26;56.45;;;23.60;;
28844;SDS011;15976;47.938;7.758;2023-03-03T03:21:55;57.13;;;25.08;;
28844;SDS011;15976;47.938;7.758;2023-03-03T03:24:22;62.47;;;26.33;;
28844;SDS011;15976;47.938;7.758;2023-03-03T03:26:56;62.17;;;25.15;;
28844;SDS011;15976;47.938;7.758;2023-03-03T03:29:25;59.55;;;25.35;;
28844;SDS011;15976;47.938;7.758;2023-03-03T03:31:52;63.85;;;26.60;;
28844;SDS011;15976;47.938;7.758;2023-03-03T03:34:19;67.90;;;27.00;;
28844;SDS011;15976;47.938;7.758;2023-03-03T03:36:48;61.95;;;25.67;;
28844;SDS011;15976;47.938;7.758;2023-03-03T03:39:17;66.30;;;25.80;;
28844;SDS011;15976;47.938;7.758;2023-03-03T03:41:47;60.90;;;26.23;;
28844;SDS011;15976;47.938;7.758;2023-03-03T03:44:15;58.95;;;26.05;;
28844;SDS011;15976;47.938;7.758;2023-03-03T03:46:42;59.28;;;26.70;;
28844;SDS011;15976;47.938;7.758;2023-03-03T03:49:10;63.75;;;26.77;;
28844;SDS011;15976;47.938;7.758;2023-03-03T03:51:36;59.22;;;26.55;;
28844;SDS011;15976;47.938;7.758;2023-03-03T03:54:08;64.55;;;26.42;;
28844;SDS011;15976;47.938;7.758;2023-03-03T03:56:36;63.70;;;26.90;;
28844;SDS011;15976;47.938;7.758;2023-03-03T03:59:07;60.08;;;25.08;;
28844;SDS011;15976;47.938;7.758;2023-03-03T04:01:36;62.28;;;25.50;;
28844;SDS011;15976;47.938;7.758;2023-03-03T04:04:03;61.92;;;25.35;;
28844;SDS011;15976;47.938;7.758;2023-03-03T04:06:32;58.38;;;24.60;;
28844;SDS011;15976;47.938;7.758;2023-03-03T04:09:00;63.35;;;25.65;;
28844;SDS011;15976;47.938;7.758;2023-03-03T04:11:28;54.60;;;23.33;;
28844;SDS011;15976;47.938;7.758;2023-03-03T04:13:56;61.17;;;25.85;;
28844;SDS011;15976;47.938;7.758;2023-03-03T04:16:23;62.90;;;26.88;;
28844;SDS011;15976;47.938;7.758;2023-03-03T04:18:50;61.58;;;24.55;;
28844;SDS011;15976;47.938;7.758;2023-03-03T04:21:19;65.63;;;25.83;;
28844;SDS011;15976;47.938;7.758;2023-03-03T04:23:47;64.80;;;26.35;;
28844;SDS011;15976;47.938;7.758;2023-03-03T04:26:15;66.60;;;27.55;;
28844;SDS011;15976;47.938;7.758;2023-03-03T04:28:43;65.00;;;26.15;;
28844;SDS011;15976;47.938;7.758;2023-03-03T04:31:11;64.05;;;26.35;;
28844;SDS011;15976;47.938;7.758;2023-03-03T04:33:38;63.72;;;25.20;;
28844;SDS011;15976;47.938;7.758;2023-03-03T04:36:06;64.07;;;25.20;;
28844;SDS011;15976;47.938;7.758;2023-03-03T04:38:33;59.17;;;26.08;;
28844;SDS011;15976;47.938;7.758;2023-03-03T04:41:00;64.63;;;26.55;;
28844;SDS011;15976;47.938;7.758;2023-03-03T04:43:32;68.88;;;27.38;;
28844;SDS011;15976;47.938;7.758;2023-03-03T04:46:00;64.75;;;26.75;;
28844;SDS011;15976;47.938;7.758;2023-03-03T04:48:27;62.20;;;25.45;;
28844;SDS011;15976;47.938;7.758;2023-03-03T04:50:54;60.53;;;26.08;;
28844;SDS011;15976;47.938;7.758;2023-03-03T04:53:21;68.28;;;27.52;;
28844;SDS011;15976;47.938;7.758;2023-03-03T04:55:49;63.03;;;26.85;;
28844;SDS011;15976;47.938;7.758;2023-03-03T04:58:18;67.20;;;27.77;;
28844;SDS011;15976;47.938;7.758;2023-03-03T05:00:46;62.40;;;25.85;;
28844;SDS011;15976;47.938;7.758;2023-03-03T05:03:18;67.47;;;28.05;;
28844;SDS011;15976;47.938;7.758;2023-03-03T05:05:46;65.50;;;26.27;;
28844;SDS011;15976;47.938;7.758;2023-03-03T05:08:13;68.88;;;26.73;;
28844;SDS011;15976;47.938;7.758;2023-03-03T05:10:40;61.90;;;27.13;;
28844;SDS011;15976;47.938;7.758;2023-03-03T05:13:07;57.95;;;24.98;;
28844;SDS011;15976;47.938;7.758;2023-03-03T05:15:34;68.35;;;27.67;;
28844;SDS011;15976;47.938;7.758;2023-03-03T05:18:02;62.30;;;26.67;;
28844;SDS011;15976;47.938;7.758;2023-03-03T05:20:29;65.22;;;27.98;;
28844;SDS011;15976;47.938;7.758;2023-03-03T05:22:56;60.65;;;26.85;;
28844;SDS011;15976;47.938;7.758;2023-03-03T05:25:25;64.25;;;27.27;;
28844;SDS011;15976;47.938;7.758;2023-03-03T05:27:52;66.82;;;28.63;;
28844;SDS011;15976;47.938;7.758;2023-03-03T05:30:20;65.47;;;26.50;;
28844;SDS011;15976;47.938;7.758;2023-03-03T05:32:47;64.28;;;27.92;;
28844;SDS011;15976;47.938;7.758;2023-03-03T05:35:14;73.88;;;27.83;;
28844;SDS011;15976;47.938;7.758;2023-03-03T05:37:42;60.88;;;26.75;;
28844;SDS011;15976;47.938;7.758;2023-03-03T05:40:13;61.50;;;26.73;;
28844;SDS011;15976;47.938;7.758;2023-03-03T05:42:41;65.55;;;26.55;;
28844;SDS011;15976;47.938;7.758;2023-03-03T05:45:08;62.40;;;26.77;;
28844;SDS011;15976;47.938;7.758;2023-03-03T05:47:36;65.35;;;27.15;;
28844;SDS011;15976;47.938;7.758;2023-03-03T05:50:03;64.57;;;27.20;;
28844;SDS011;15976;47.938;7.758;2023-03-03T05:52:31;63.05;;;26.58;;
28844;SDS011;15976;47.938;7.758;2023-03-03T05:54:57;67.45;;;27.73;;
28844;SDS011;15976;47.938;7.758;2023-03-03T05:57:24;67.07;;;27.55;;
28844;SDS011;15976;47.938;7.758;2023-03-03T05:59:51;66.63;;;29.15;;
28844;SDS011;15976;47.938;7.758;2023-03-03T06:02:18;64.15;;;27.23;;
28844;SDS011;15976;47.938;7.758;2023-03-03T06:04:45;62.35;;;27.17;;
28844;SDS011;15976;47.938;7.758;2023-03-03T06:07:12;62.33;;;26.38;;
28844;SDS011;15976;47.938;7.758;2023-03-03T06:09:39;65.15;;;27.92;;
28844;SDS011;15976;47.938;7.758;2023-03-03T06:12:06;63.08;;;26.70;;
28844;SDS011;15976;47.938;7.758;2023-03-03T06:14:33;67.50;;;27.98;;
28844;SDS011;15976;47.938;7.758;2023-03-03T06:17:00;62.78;;;28.15;;
28844;SDS011;15976;47.938;7.758;2023-03-03T06:19:28;67.95;;;28.27;;
28844;SDS011;15976;47.938;7.758;2023-03-03T06:21:55;67.65;;;28.27;;
28844;SDS011;15976;47.938;7.758;2023-03-03T06:24:25;69.70;;;28.48;;
28844;SDS011;15976;47.938;7.758;2023-03-03T06:26:59;68.57;;;29.17;;
28844;SDS011;15976;47.938;7.758;2023-03-03T06:29:27;62.55;;;27.48;;
28844;SDS011;15976;47.938;7.758;2023-03-03T06:31:54;66.70;;;28.00;;
28844;SDS011;15976;47.938;7.758;2023-03-03T06:34:21;61.85;;;27.92;;
28844;SDS011;15976;47.938;7.758;2023-03-03T06:36:48;63.30;;;27.90;;
28844;SDS011;15976;47.938;7.758;2023-03-03T06:39:15;69.32;;;28.83;;
28844;SDS011;15976;47.938;7.758;2023-03-03T06:41:42;66.43;;;27.98;;
28844;SDS011;15976;47.938;7.758;2023-03-03T06:44:09;68.82;;;30.90;;
28844;SDS011;15976;47.938;7.758;2023-03-03T06:46:37;69.65;;;28.33;;
28844;SDS011;15976;47.938;7.758;2023-03-03T06:49:04;73.80;;;34.08;;
28844;SDS011;15976;47.938;7.758;2023-03-03T06:51:32;85.05;;;34.97;;
28844;SDS011;15976;47.938;7.758;2023-03-03T06:54:05;71.35;;;30.15;;
28844;SDS011;15976;47.938;7.758;2023-03-03T06:56:38;86.63;;;35.08;;
28844;SDS011;15976;47.938;7.758;2023-03-03T06:59:24;88.35;;;34.83;;
28844;SDS011;15976;47.938;7.758;2023-03-03T07:01:53;76.50;;;34.22;;
28844;SDS011;15976;47.938;7.758;2023-03-03T07:06:59;76.50;;;33.22;;
28844;SDS011;15976;47.938;7.758;2023-03-03T07:09:36;84.07;;;33.38;;
28844;SDS011;15976;47.938;7.758;2023-03-03T07:12:09;83.60;;;33.85;;
28844;SDS011;15976;47.938;7.758;2023-03-03T07:14:42;80.95;;;34.95;;
28844;SDS011;15976;47.938;7.758;2023-03-03T07:17:18;83.38;;;35.33;;
28844;SDS011;15976;47.938;7.758;2023-03-03T07:19:46;91.40;;;37.63;;
28844;SDS011;15976;47.938;7.758;2023-03-03T07:22:20;82.07;;;34.00;;
28844;SDS011;15976;47.938;7.758;2023-03-03T07:24:50;90.30;;;40.38;;
28844;SDS011;15976;47.938;7.758;2023-03-03T07:27:24;106.85;;;43.33;;
28844;SDS011;15976;47.938;7.758;2023-03-03T07:30:00;97.53;;;44.63;;
28844;SDS011;15976;47.938;7.758;2023-03-03T07:32:42;78.55;;;32.20;;
28844;SDS011;15976;47.938;7.758;2023-03-03T07:37:50;80.90;;;34.55;;
28844;SDS011;15976;47.938;7.758;2023-03-03T07:42:51;74.30;;;32.92;;
28844;SDS011;15976;47.938;7.758;2023-03-03T07:45:28;80.35;;;32.92;;
28844;SDS011;15976;47.938;7.758;2023-03-03T07:50:50;69.55;;;32.15;;
28844;SDS011;15976;47.938;7.758;2023-03-03T07:53:36;76.38;;;32.45;;
28844;SDS011;15976;47.938;7.758;2023-03-03T07:56:26;75.85;;;32.67;;
28844;SDS011;15976;47.938;7.758;2023-03-03T07:59:01;81.43;;;34.63;;
28844;SDS011;15976;47.938;7.758;2023-03-03T08:01:42;80.60;;;34.63;;
28844;SDS011;15976;47.938;7.758;2023-03-03T08:04:16;87.15;;;36.20;;
28844;SDS011;15976;47.938;7.758;2023-03-03T08:06:47;79.22;;;35.17;;
28844;SDS011;15976;47.938;7.758;2023-03-03T08:14:37;77.65;;;34.20;;
28844;SDS011;15976;47.938;7.758;2023-03-03T08:17:19;77.38;;;33.35;;
28844;SDS011;15976;47.938;7.758;2023-03-03T08:19:48;79.20;;;33.28;;
28844;SDS011;15976;47.938;7.758;2023-03-03T08:22:17;74.30;;;33.75;;
28844;SDS011;15976;47.938;7.758;2023-03-03T08:24:50;73.75;;;32.67;;
28844;SDS011;15976;47.938;7.758;2023-03-03T08:27:17;69.15;;;31.48;;
28844;SDS011;15976;47.938;7.758;2023-03-03T08:29:44;72.43;;;31.50;;
28844;SDS011;15976;47.938;7.758;2023-03-03T08:32:13;75.22;;;31.73;;
28844;SDS011;15976;47.938;7.758;2023-03-03T08:34:41;69.95;;;30.33;;
28844;SDS011;15976;47.938;7.758;2023-03-03T08:37:08;67.85;;;30.13;;
28844;SDS011;15976;47.938;7.758;2023-03-03T08:39:34;65.95;;;29.50;;
28844;SDS011;15976;47.938;7.758;2023-03-03T08:42:02;70.30;;;31.35;;
28844;SDS011;15976;47.938;7.758;2023-03-03T08:44:28;72.30;;;29.63;;
28844;SDS011;15976;47.938;7.758;2023-03-03T08:46:56;77.05;;;31.83;;
28844;SDS011;15976;47.938;7.758;2023-03-03T08:49:23;66.78;;;29.80;;
28844;SDS011;15976;47.938;7.758;2023-03-03T08:51:51;72.57;;;30.98;;
28844;SDS011;15976;47.938;7.758;2023-03-03T08:54:18;69.15;;;31.55;;
28844;SDS011;15976;47.938;7.758;2023-03-03T08:56:45;67.10;;;30.15;;
28844;SDS011;15976;47.938;7.758;2023-03-03T08:59:12;75.15;;;33.05;;
28844;SDS011;15976;47.938;7.758;2023-03-03T09:01:39;69.15;;;32.15;;
28844;SDS011;15976;47.938;7.758;2023-03-03T09:04:09;69.28;;;29.60;;
28844;SDS011;15976;47.938;7.758;2023-03-03T09:06:36;71.10;;;31.27;;
28844;SDS011;15976;47.938;7.758;2023-03-03T09:09:03;68.93;;;30.52;;
28844;SDS011;15976;47.938;7.758;2023-03-03T09:11:31;66.47;;;30.73;;
28844;SDS011;15976;47.938;7.758;2023-03-03T09:14:09;70.13;;;30.33;;
28844;SDS011;15976;47.938;7.758;2023-03-03T09:16:39;68.57;;;29.83;;
28844;SDS011;15976;47.938;7.758;2023-03-03T09:19:20;64.68;;;27.55;;
28844;SDS011;15976;47.938;7.758;2023-03-03T09:21:57;68.07;;;29.35;;
28844;SDS011;15976;47.938;7.758;2023-03-03T09:24:29;63.58;;;28.17;;
28844;SDS011;15976;47.938;7.758;2023-03-03T09:26:57;68.88;;;29.15;;
28844;SDS011;15976;47.938;7.758;2023-03-03T09:29:29;63.67;;;28.63;;
28844;SDS011;15976;47.938;7.758;2023-03-03T09:34:44;64.88;;;28.42;;
28844;SDS011;15976;47.938;7.758;2023-03-03T09:37:22;69.47;;;29.85;;
28844;SDS011;15976;47.938;7.758;2023-03-03T09:39:55;65.13;;;29.58;;
28844;SDS011;15976;47.938;7.758;2023-03-03T09:45:23;64.07;;;29.05;;
28844;SDS011;15976;47.938;7.758;2023-03-03T09:48:26;61.75;;;27.23;;
28844;SDS011;15976;47.938;7.758;2023-03-03T09:59:00;66.85;;;28.90;;
28844;SDS011;15976;47.938;7.758;2023-03-03T10:04:41;60.65;;;26.80;;
28844;SDS011;15976;47.938;7.758;2023-03-03T10:08:08;63.50;;;27.73;;
28844;SDS011;15976;47.938;7.758;2023-03-03T10:13:03;66.25;;;28.77;;
28844;SDS011;15976;47.938;7.758;2023-03-03T10:18:30;67.88;;;30.48;;
28844;SDS011;15976;47.938;7.758;2023-03-03T10:21:09;61.13;;;27.30;;
28844;SDS011;15976;47.938;7.758;2023-03-03T10:23:52;65.82;;;29.65;;
28844;SDS011;15976;47.938;7.758;2023-03-03T10:48:41;72.95;;;31.00;;
28844;SDS011;15976;47.938;7.758;2023-03-03T10:51:32;67.72;;;30.48;;
28844;SDS011;15976;47.938;7.758;2023-03-03T10:54:27;67.78;;;30.98;;
28844;SDS011;15976;47.938;7.758;2023-03-03T10:57:33;65.38;;;31.83;;
28844;SDS011;15976;47.938;7.758;2023-03-03T11:05:54;68.15;;;31.85;;
28844;SDS011;15976;47.938;7.758;2023-03-03T11:11:38;67.47;;;29.90;;
28844;SDS011;15976;47.938;7.758;2023-03-03T11:14:32;66.47;;;30.17;;
28844;SDS011;15976;47.938;7.758;2023-03-03T11:22:47;64.50;;;30.80;;
28844;SDS011;15976;47.938;7.758;2023-03-03T11:25:29;67.90;;;33.28;;
28844;SDS011;15976;47.938;7.758;2023-03-03T11:31:09;68.07;;;32.03;;
28844;SDS011;15976;47.938;7.758;2023-03-03T11:39:03;64.68;;;31.30;;
28844;SDS011;15976;47.938;7.758;2023-03-03T11:41:41;72.00;;;32.17;;
28844;SDS011;15976;47.938;7.758;2023-03-03T11:44:34;69.68;;;32.80;;
28844;SDS011;15976;47.938;7.758;2023-03-03T11:47:25;66.78;;;30.67;;
28844;SDS011;15976;47.938;7.758;2023-03-03T12:01:56;63.30;;;31.15;;
28844;SDS011;15976;47.938;7.758;2023-03-03T12:11:00;63.97;;;30.80;;
28844;SDS011;15976;47.938;7.758;2023-03-03T12:16:28;70.15;;;33.42;;
28844;SDS011;15976;47.938;7.758;2023-03-03T12:28:19;61.70;;;29.98;;
28844;SDS011;15976;47.938;7.758;2023-03-03T12:47:45;62.60;;;31.73;;
28844;SDS011;15976;47.938;7.758;2023-03-03T13:04:40;57.72;;;28.20;;
28844;SDS011;15976;47.938;7.758;2023-03-03T13:07:26;61.22;;;30.70;;
28844;SDS011;15976;47.938;7.758;2023-03-03T13:15:33;64.53;;;30.48;;
28844;SDS011;15976;47.938;7.758;2023-03-03T13:24:04;61.53;;;27.35;;
28844;SDS011;15976;47.938;7.758;2023-03-03T13:29:05;64.80;;;28.65;;
28844;SDS011;15976;47.938;7.758;2023-03-03T13:31:39;62.20;;;31.30;;
28844;SDS011;15976;47.938;7.758;2023-03-03T13:39:59;63.85;;;31.35;;
28844;SDS011;15976;47.938;7.758;2023-03-03T13:45:01;60.97;;;30.88;;
28844;SDS011;15976;47.938;7.758;2023-03-03T13:58:57;68.78;;;33.83;;
28844;SDS011;15976;47.938;7.758;2023-03-03T14:06:54;73.85;;;33.78;;
28844;SDS011;15976;47.938;7.758;2023-03-03T14:20:40;67.47;;;33.80;;
28844;SDS011;15976;47.938;7.758;2023-03-03T14:23:38;68.05;;;33.17;;
28844;SDS011;15976;47.938;7.758;2023-03-03T14:26:22;66.32;;;32.80;;
28844;SDS011;15976;47.938;7.758;2023-03-03T14:28:50;66.28;;;32.20;;
28844;SDS011;15976;47.938;7.758;2023-03-03T14:31:29;68.47;;;32.15;;
28844;SDS011;15976;47.938;7.758;2023-03-03T14:40:32;66.97;;;34.25;;
28844;SDS011;15976;47.938;7.758;2023-03-03T14:42:53;65.72;;;31.88;;
28844;SDS011;15976;47.938;7.758;2023-03-03T14:45:29;73.03;;;33.92;;
28844;SDS011;15976;47.938;7.758;2023-03-03T14:48:00;66.43;;;32.70;;
28844;SDS011;15976;47.938;7.758;2023-03-03T14:53:21;64.15;;;32.97;;
28844;SDS011;15976;47.938;7.758;2023-03-03T14:56:15;67.25;;;33.88;;
28844;SDS011;15976;47.938;7.758;2023-03-03T14:58:48;72.10;;;34.40;;
28844;SDS011;15976;47.938;7.758;2023-03-03T15:01:21;68.83;;;32.80;;
28844;SDS011;15976;47.938;7.758;2023-03-03T15:12:18;70.28;;;33.88;;
28844;SDS011;15976;47.938;7.758;2023-03-03T15:15:36;64.53;;;32.80;;
28844;SDS011;15976;47.938;7.758;2023-03-03T15:20:30;65.78;;;32.30;;
28844;SDS011;15976;47.938;7.758;2023-03-03T15:23:07;67.07;;;31.45;;
28844;SDS011;15976;47.938;7.758;2023-03-03T15:25:46;69.05;;;32.67;;
28844;SDS011;15976;47.938;7.758;2023-03-03T15:31:44;67.13;;;32.20;;
28844;SDS011;15976;47.938;7.758;2023-03-03T15:37:03;64.35;;;32.35;;
28844;SDS011;15976;47.938;7.758;2023-03-03T15:43:02;72.20;;;35.72;;
28844;SDS011;15976;47.938;7.758;2023-03-03T15:45:33;82.60;;;36.08;;
28844;SDS011;15976;47.938;7.758;2023-03-03T15:48:32;69.80;;;33.75;;
28844;SDS011;15976;47.938;7.758;2023-03-03T15:54:28;72.65;;;34.45;;
28844;SDS011;15976;47.938;7.758;2023-03-03T16:04:43;99.03;;;40.80;;
28844;SDS011;15976;47.938;7.758;2023-03-03T16:07:34;107.05;;;45.22;;
28844;SDS011;15976;47.938;7.758;2023-03-03T16:16:06;85.22;;;33.95;;
28844;SDS011;15976;47.938;7.758;2023-03-03T16:27:24;63.03;;;30.75;;
28844;SDS011;15976;47.938;7.758;2023-03-03T16:30:07;66.15;;;31.67;;
28844;SDS011;15976;47.938;7.758;2023-03-03T16:32:45;74.43;;;33.75;;
28844;SDS011;15976;47.938;7.758;2023-03-03T16:35:23;73.80;;;34.63;;
28844;SDS011;15976;47.938;7.758;2023-03-03T16:40:25;66.78;;;31.58;;
28844;SDS011;15976;47.938;7.758;2023-03-03T16:45:42;70.15;;;32.95;;
28844;SDS011;15976;47.938;7.758;2023-03-03T16:55:57;68.43;;;31.63;;
28844;SDS011;15976;47.938;7.758;2023-03-03T17:01:42;70.60;;;34.83;;
28844;SDS011;15976;47.938;7.758;2023-03-03T17:07:02;68.47;;;34.63;;
28844;SDS011;15976;47.938;7.758;2023-03-03T17:15:37;68.53;;;32.60;;
28844;SDS011;15976;47.938;7.758;2023-03-03T17:25:53;65.40;;;32.38;;
28844;SDS011;15976;47.938;7.758;2023-03-03T17:40:01;64.43;;;31.48;;
28844;SDS011;15976;47.938;7.758;2023-03-03T17:45:09;69.25;;;33.00;;
28844;SDS011;15976;47.938;7.758;2023-03-03T17:55:43;66.13;;;28.98;;
28844;SDS011;15976;47.938;7.758;2023-03-03T18:09:49;65.72;;;30.25;;
28844;SDS011;15976;47.938;7.758;2023-03-03T18:18:04;74.85;;;35.28;;
28844;SDS011;15976;47.938;7.758;2023-03-03T18:20:52;73.70;;;36.35;;
28844;SDS011;15976;47.938;7.758;2023-03-03T18:23:36;77.63;;;38.13;;
28844;SDS011;15976;47.938;7.758;2023-03-03T18:29:21;71.43;;;32.28;;
28844;SDS011;15976;47.938;7.758;2023-03-03T18:42:34;63.30;;;32.85;;
28844;SDS011;15976;47.938;7.758;2023-03-03T18:45:10;73.65;;;34.35;;
28844;SDS011;15976;47.938;7.758;2023-03-03T18:50:43;67.53;;;32.13;;
28844;SDS011;15976;47.938;7.758;2023-03-03T18:53:20;67.88;;;32.17;;
28844;SDS011;15976;47.938;7.758;2023-03-03T19:03:35;70.00;;;35.25;;
28844;SDS011;15976;47.938;7.758;2023-03-03T19:09:09;80.90;;;35.70;;
28844;SDS011;15976;47.938;7.758;2023-03-03T19:16:43;70.55;;;33.67;;
28844;SDS011;15976;47.938;7.758;2023-03-03T19:19:12;73.32;;;32.83;;
28844;SDS011;15976;47.938;7.758;2023-03-03T19:21:42;71.95;;;33.50;;
28844;SDS011;15976;47.938;7.758;2023-03-03T19:24:27;67.18;;;32.13;;
28844;SDS011;15976;47.938;7.758;2023-03-03T19:27:08;67.97;;;33.30;;
28844;SDS011;15976;47.938;7.758;2023-03-03T19:37:49;63.72;;;32.13;;
28844;SDS011;15976;47.938;7.758;2023-03-03T19:45:56;70.28;;;35.10;;
28844;SDS011;15976;47.938;7.758;2023-03-03T20:00:26;76.00;;;36.05;;
28844;SDS011;15976;47.938;7.758;2023-03-03T20:08:38;237.82;;;89.55;;
28844;SDS011;15976;47.938;7.758;2023-03-03T20:14:08;315.88;;;119.07;;
28844;SDS011;15976;47.938;7.758;2023-03-03T20:16:52;183.38;;;81.63;;
28844;SDS011;15976;47.938;7.758;2023-03-03T20:24:53;107.22;;;49.67;;
28844;SDS011;15976;47.938;7.758;2023-03-03T20:41:37;74.53;;;33.63;;
28844;SDS011;15976;47.938;7.758;2023-03-03T20:44:22;71.03;;;34.20;;
28844;SDS011;15976;47.938;7.758;2023-03-03T20:47:20;75.80;;;35.33;;
28844;SDS011;15976;47.938;7.758;2023-03-03T20:57:59;77.05;;;36.30;;
28844;SDS011;15976;47.938;7.758;2023-03-03T21:03:16;68.20;;;33.42;;
28844;SDS011;15976;47.938;7.758;2023-03-03T21:08:41;72.57;;;33.00;;
28844;SDS011;15976;47.938;7.758;2023-03-03T21:11:08;73.43;;;34.42;;
28844;SDS011;15976;47.938;7.758;2023-03-03T21:13:39;74.00;;;34.33;;
28844;SDS011;15976;47.938;7.758;2023-03-03T21:16:35;74.28;;;34.70;;
28844;SDS011;15976;47.938;7.758;2023-03-03T21:21:33;78.63;;;37.47;;
28844;SDS011;15976;47.938;7.758;2023-03-03T21:24:02;79.43;;;36.55;;
28844;SDS011;15976;47.938;7.758;2023-03-03T21:34:31;90.30;;;41.00;;
28844;SDS011;15976;47.938;7.758;2023-03-03T21:36:59;78.15;;;36.67;;
28844;SDS011;15976;47.938;7.758;2023-03-03T21:42:06;77.07;;;36.75;;
28844;SDS011;15976;47.938;7.758;2023-03-03T21:44:38;77.28;;;36.55;;
28844;SDS011;15976;47.938;7.758;2023-03-03T21:47:07;78.65;;;37.33;;
28844;SDS011;15976;47.938;7.758;2023-03-03T21:49:35;79.05;;;37.65;;
28844;SDS011;15976;47.938;7.758;2023-03-03T21:52:05;77.68;;;36.50;;
28844;SDS011;15976;47.938;7.758;2023-03-03T21:54:32;71.07;;;35.15;;
28844;SDS011;15976;47.938;7.758;2023-03-03T21:56:59;79.35;;;35.90;;
28844;SDS011;15976;47.938;7.758;2023-03-03T21:59:26;75.10;;;36.83;;
28844;SDS011;15976;47.938;7.758;2023-03-03T22:01:53;78.53;;;36.47;;
28844;SDS011;15976;47.938;7.758;2023-03-03T22:04:21;79.03;;;35.78;;
28844;SDS011;15976;47.938;7.758;2023-03-03T22:06:48;83.75;;;38.90;;
28844;SDS011;15976;47.938;7.758;2023-03-03T22:09:16;87.13;;;40.95;;
28844;SDS011;15976;47.938;7.758;2023-03-03T22:11:43;88.43;;;42.38;;
28844;SDS011;15976;47.938;7.758;2023-03-03T22:14:10;82.60;;;41.53;;
28844;SDS011;15976;47.938;7.758;2023-03-03T22:16:37;75.95;;;37.10;;
28844;SDS011;15976;47.938;7.758;2023-03-03T22:19:04;84.45;;;41.25;;
28844;SDS011;15976;47.938;7.758;2023-03-03T22:21:35;79.00;;;36.90;;
28844;SDS011;15976;47.938;7.758;2023-03-03T22:24:03;77.20;;;36.47;;
28844;SDS011;15976;47.938;7.758;2023-03-03T22:26:31;82.13;;;36.20;;
28844;SDS011;15976;47.938;7.758;2023-03-03T22:28:58;79.68;;;36.42;;